Time;durP1;ratioP1;P1;durP2;ratioP2;P2;SDS_P1;SDS_P2;PMS_P1;PMS_P2;Temp;Humidity;BMP_temperature;BMP_pressure;BME280_temperature;BME280_humidity;BME280_pressure;Samples;Min_cycle;Max_cycle;Signal;HPM_P1;HPM_P2
2023/12/11 00:00:56;;;;;;;3.25;0.90;;;9.10;99.90;;;;;;5019894;28;20466;-57
2023/12/11 00:03:23;;;;;;;9.95;2.30;;;9.10;99.90;;;;;;5025439;28;20203;-57
2023/12/11 00:05:50;;;;;;;3.85;1.35;;;9.10;99.90;;;;;;5029629;28;20203;-58
2023/12/11 00:08:17;;;;;;;1.88;1.27;;;9.10;99.90;;;;;;5030954;28;20249;-55
2023/12/11 00:10:44;;;;;;;1.20;1.07;;;9.10;99.90;;;;;;5031320;28;20285;-57
2023/12/11 00:13:12;;;;;;;1.70;1.20;;;9.10;99.90;;;;;;5030180;28;20494;-58
2023/12/11 00:15:40;;;;;;;4.03;1.20;;;9.10;99.90;;;;;;5031055;28;20533;-57
2023/12/11 00:18:07;;;;;;;1.73;0.65;;;9.10;99.90;;;;;;5030696;28;20265;-60
2023/12/11 00:20:34;;;;;;;1.60;0.93;;;9.10;99.90;;;;;;5031366;28;20645;-58
2023/12/11 00:23:01;;;;;;;2.10;0.87;;;9.00;99.90;;;;;;5031114;28;20592;-57
2023/12/11 00:25:28;;;;;;;3.42;0.82;;;9.10;99.90;;;;;;5031126;28;20468;-55
2023/12/11 00:27:55;;;;;;;0.93;0.93;;;9.10;99.90;;;;;;5030922;28;20207;-59
2023/12/11 00:30:23;;;;;;;2.87;0.93;;;9.10;99.90;;;;;;5030859;28;20956;-58
2023/12/11 00:32:50;;;;;;;1.23;0.67;;;9.00;99.90;;;;;;5030808;28;20490;-55
2023/12/11 00:35:17;;;;;;;3.42;1.40;;;9.00;99.90;;;;;;5030845;28;20846;-58
2023/12/11 00:37:44;;;;;;;1.30;0.88;;;8.90;99.90;;;;;;5025060;28;20276;-59
2023/12/11 00:40:11;;;;;;;1.95;1.23;;;8.90;99.90;;;;;;5029535;28;20231;-55
2023/12/11 00:42:38;;;;;;;3.50;1.13;;;8.90;99.90;;;;;;5029656;28;20249;-56
2023/12/11 00:45:06;;;;;;;3.45;1.35;;;8.80;99.90;;;;;;5030593;28;20507;-58
2023/12/11 00:47:34;;;;;;;1.23;1.13;;;8.80;99.90;;;;;;5029937;28;20195;-58
2023/12/11 00:50:01;;;;;;;2.50;1.05;;;8.80;99.90;;;;;;5029579;28;20509;-58
2023/12/11 00:52:28;;;;;;;1.08;0.80;;;8.80;99.90;;;;;;5030886;28;20676;-60
2023/12/11 00:54:55;;;;;;;2.47;1.30;;;8.80;99.90;;;;;;5030854;28;20202;-60
2023/12/11 00:57:22;;;;;;;1.90;0.90;;;8.80;99.90;;;;;;5030582;28;20211;-57
2023/12/11 00:59:49;;;;;;;3.50;1.30;;;8.80;99.90;;;;;;5030616;28;20313;-59
2023/12/11 01:02:17;;;;;;;5.60;2.20;;;8.70;99.90;;;;;;5030587;28;20241;-58
2023/12/11 01:04:45;;;;;;;2.45;1.10;;;8.70;99.90;;;;;;5030808;28;20581;-58
2023/12/11 01:07:12;;;;;;;3.75;0.98;;;8.80;99.90;;;;;;5030611;28;20210;-57
2023/12/11 01:09:41;;;;;;;1.47;0.77;;;8.80;99.90;;;;;;5029888;28;20289;-57
2023/12/11 01:12:08;;;;;;;2.55;0.77;;;8.80;99.90;;;;;;5030278;28;20452;-56
2023/12/11 01:14:37;;;;;;;2.33;1.23;;;8.80;99.90;;;;;;5029935;28;20318;-58
2023/12/11 01:17:04;;;;;;;0.95;0.80;;;8.90;99.90;;;;;;5030658;28;20261;-60
2023/12/11 01:19:31;;;;;;;1.80;0.50;;;8.90;99.90;;;;;;5030561;28;20223;-58
2023/12/11 01:21:59;;;;;;;1.70;0.90;;;8.90;99.90;;;;;;5030316;28;20492;-56
2023/12/11 01:24:26;;;;;;;0.80;0.80;;;8.90;99.90;;;;;;5030457;28;20445;-55
2023/12/11 01:26:53;;;;;;;1.27;1.17;;;8.90;99.90;;;;;;5030519;28;20253;-58
2023/12/11 01:29:20;;;;;;;1.50;1.40;;;9.00;99.90;;;;;;5030355;28;20493;-58
2023/12/11 01:31:47;;;;;;;2.83;1.50;;;9.00;99.90;;;;;;5030696;28;20246;-57
2023/12/11 01:34:14;;;;;;;4.07;0.98;;;9.00;99.90;;;;;;5030765;28;20446;-57
2023/12/11 01:36:43;;;;;;;1.55;1.00;;;9.00;99.90;;;;;;5030179;28;20211;-58
2023/12/11 01:39:11;;;;;;;1.63;1.00;;;9.00;99.90;;;;;;5029716;28;20254;-57
2023/12/11 01:41:38;;;;;;;1.03;0.73;;;9.00;99.90;;;;;;5030563;28;20916;-59
2023/12/11 01:44:05;;;;;;;2.33;2.13;;;9.00;99.90;;;;;;5030566;28;20972;-58
2023/12/11 01:46:32;;;;;;;2.00;0.97;;;9.10;99.90;;;;;;5033714;28;20903;-59
2023/12/11 01:48:59;;;;;;;2.20;0.70;;;9.10;99.90;;;;;;5033849;28;20457;-58
2023/12/11 01:51:26;;;;;;;1.08;0.90;;;9.10;99.90;;;;;;5033876;28;20469;-58
2023/12/11 01:53:54;;;;;;;1.52;0.98;;;9.10;99.90;;;;;;5033800;28;20259;-57
2023/12/11 01:56:22;;;;;;;2.03;0.83;;;9.10;99.90;;;;;;5033956;28;20241;-59
2023/12/11 01:58:50;;;;;;;0.82;0.60;;;9.10;99.90;;;;;;5033719;28;20456;-59
2023/12/11 02:01:20;;;;;;;1.77;0.97;;;9.10;99.90;;;;;;5033596;28;20293;-59
2023/12/11 02:03:48;;;;;;;1.23;0.85;;;9.00;99.90;;;;;;5033986;28;20445;-58
2023/12/11 02:06:15;;;;;;;0.77;0.77;;;9.00;99.90;;;;;;5033978;28;20288;-58
2023/12/11 02:08:42;;;;;;;1.30;0.90;;;9.00;99.90;;;;;;5034098;28;20289;-58
2023/12/11 02:11:09;;;;;;;4.23;1.20;;;9.00;99.90;;;;;;5033393;28;21092;-56
2023/12/11 02:13:40;;;;;;;1.02;1.02;;;8.90;99.90;;;;;;5033654;28;20446;-58
2023/12/11 02:16:07;;;;;;;3.22;1.00;;;8.90;99.90;;;;;;5033632;28;20238;-58
2023/12/11 02:18:34;;;;;;;2.55;1.08;;;8.90;99.90;;;;;;5033654;28;20802;-59
2023/12/11 02:21:01;;;;;;;0.93;0.93;;;8.90;99.90;;;;;;5033631;28;20713;-59
2023/12/11 02:23:34;;;;;;;1.60;1.00;;;8.90;99.90;;;;;;5033755;28;20508;-56
2023/12/11 02:26:13;;;;;;;1.27;1.10;;;8.80;99.90;;;;;;5033711;28;20930;-60
2023/12/11 02:28:40;;;;;;;1.38;1.10;;;8.80;99.90;;;;;;5033392;28;20552;-55
2023/12/11 02:31:07;;;;;;;1.05;1.00;;;8.80;99.90;;;;;;5033245;28;20266;-59
2023/12/11 02:33:34;;;;;;;1.10;1.00;;;8.80;99.90;;;;;;5033366;28;20203;-59
2023/12/11 02:36:02;;;;;;;1.48;1.30;;;8.80;99.90;;;;;;5033452;28;20211;-58
2023/12/11 02:38:28;;;;;;;0.80;0.80;;;8.80;99.90;;;;;;5033345;28;20282;-58
2023/12/11 02:40:56;;;;;;;1.10;0.93;;;8.90;99.90;;;;;;5033220;28;20901;-57
2023/12/11 02:43:24;;;;;;;4.90;1.60;;;8.80;99.90;;;;;;5033512;28;20441;-59
2023/12/11 02:45:51;;;;;;;3.65;3.35;;;8.80;99.90;;;;;;5033178;28;20499;-59
2023/12/11 02:48:18;;;;;;;1.15;0.90;;;8.90;99.90;;;;;;5032965;28;20207;-57
2023/12/11 02:50:45;;;;;;;3.55;1.13;;;8.90;99.90;;;;;;5032970;28;20231;-60
2023/12/11 02:53:12;;;;;;;0.80;0.80;;;8.90;99.90;;;;;;5033078;28;20677;-60
2023/12/11 02:55:39;;;;;;;1.03;0.87;;;8.90;99.90;;;;;;5033148;28;20269;-58
2023/12/11 02:58:06;;;;;;;1.33;1.10;;;8.80;99.90;;;;;;5032414;28;20535;-58
2023/12/11 03:00:35;;;;;;;1.50;1.00;;;8.90;99.90;;;;;;5032596;28;20274;-59
2023/12/11 03:03:02;;;;;;;2.58;1.10;;;8.90;99.90;;;;;;5032835;28;20673;-60
2023/12/11 03:05:29;;;;;;;0.93;0.63;;;8.80;99.90;;;;;;5033075;28;20203;-59
2023/12/11 03:07:56;;;;;;;1.33;1.20;;;8.80;99.90;;;;;;5032469;28;20211;-60
2023/12/11 03:10:23;;;;;;;1.20;1.10;;;8.80;99.90;;;;;;5032711;28;20223;-59
2023/12/11 03:12:50;;;;;;;1.13;1.03;;;8.80;99.90;;;;;;5032736;28;20243;-61
2023/12/11 03:15:17;;;;;;;1.35;1.25;;;8.80;99.90;;;;;;5032432;28;20442;-57
2023/12/11 03:17:47;;;;;;;2.25;0.98;;;8.80;99.90;;;;;;5032273;28;20253;-60
2023/12/11 03:20:14;;;;;;;1.55;1.30;;;8.80;99.90;;;;;;5032625;28;20369;-61
2023/12/11 03:22:41;;;;;;;1.07;0.90;;;8.90;99.90;;;;;;5032427;28;20215;-56
2023/12/11 03:25:08;;;;;;;2.33;1.20;;;8.90;99.90;;;;;;5032426;28;20499;-60
2023/12/11 03:27:35;;;;;;;1.55;1.45;;;8.90;99.90;;;;;;5032067;28;20450;-58
2023/12/11 03:30:02;;;;;;;2.08;1.00;;;8.80;99.90;;;;;;5032230;28;20916;-57
2023/12/11 03:32:29;;;;;;;1.43;1.00;;;8.80;99.90;;;;;;5032305;28;20211;-60
2023/12/11 03:34:58;;;;;;;2.47;1.10;;;8.80;99.90;;;;;;5032262;28;20450;-58
2023/12/11 03:37:25;;;;;;;2.60;2.05;;;8.80;99.90;;;;;;5031851;28;20253;-60
2023/12/11 03:39:52;;;;;;;2.35;1.33;;;8.80;99.90;;;;;;5031996;28;20227;-59
2023/12/11 03:42:18;;;;;;;0.93;0.93;;;8.80;99.90;;;;;;5031917;28;20235;-58
2023/12/11 03:44:45;;;;;;;1.40;1.30;;;8.80;99.90;;;;;;5032094;28;20481;-61
2023/12/11 03:47:12;;;;;;;1.30;1.00;;;8.70;99.90;;;;;;5073359;22;20330;-58
2023/12/11 03:49:39;;;;;;;2.15;1.20;;;8.80;99.90;;;;;;5051536;28;20213;-58
2023/12/11 03:52:08;;;;;;;2.33;1.23;;;8.80;99.90;;;;;;5052426;28;20272;-58
2023/12/11 03:54:34;;;;;;;1.08;1.08;;;8.80;99.90;;;;;;5051893;28;20301;-58
2023/12/11 03:57:01;;;;;;;1.50;1.40;;;8.80;99.90;;;;;;5052047;28;20230;-59
2023/12/11 03:59:27;;;;;;;1.42;1.27;;;8.70;99.90;;;;;;5051676;28;20264;-57
2023/12/11 04:01:54;;;;;;;1.30;1.13;;;8.80;99.90;;;;;;5051915;28;20202;-57
2023/12/11 04:04:21;;;;;;;1.05;1.05;;;8.80;99.90;;;;;;5051978;28;20449;-58
2023/12/11 04:06:48;;;;;;;4.00;1.37;;;8.70;99.90;;;;;;5051766;28;20257;-58
2023/12/11 04:09:16;;;;;;;2.83;1.30;;;8.70;99.90;;;;;;5051032;28;20518;-54
2023/12/11 04:11:45;;;;;;;4.15;1.90;;;8.60;99.90;;;;;;5051938;28;20661;-57
2023/12/11 04:14:12;;;;;;;1.30;1.20;;;8.60;99.90;;;;;;5051787;28;20301;-58
2023/12/11 04:16:41;;;;;;;1.88;1.55;;;8.50;99.90;;;;;;5051507;28;20230;-53
2023/12/11 04:19:08;;;;;;;1.35;1.17;;;8.50;99.90;;;;;;5051475;28;20292;-59
2023/12/11 04:21:35;;;;;;;1.30;1.20;;;8.50;99.90;;;;;;5051509;28;20256;-58
2023/12/11 04:24:02;;;;;;;1.42;1.33;;;8.50;99.90;;;;;;5051620;28;20211;-58
2023/12/11 04:26:30;;;;;;;1.52;1.42;;;8.60;99.90;;;;;;5051312;28;20226;-57
2023/12/11 04:28:57;;;;;;;2.00;1.45;;;8.60;99.90;;;;;;5051232;28;20206;-58
2023/12/11 04:31:24;;;;;;;1.30;1.20;;;8.70;99.90;;;;;;5051482;28;20261;-57
2023/12/11 04:33:51;;;;;;;1.50;1.40;;;8.60;99.90;;;;;;5051526;28;20215;-56
2023/12/11 04:36:18;;;;;;;2.10;1.45;;;8.60;99.90;;;;;;5051171;28;20511;-58
2023/12/11 04:38:45;;;;;;;1.52;1.42;;;8.60;99.90;;;;;;5051106;28;20241;-57
2023/12/11 04:41:12;;;;;;;2.33;1.53;;;8.60;99.90;;;;;;5051482;28;20206;-54
2023/12/11 04:43:40;;;;;;;1.85;1.73;;;8.60;99.90;;;;;;5051281;28;20556;-56
2023/12/11 04:46:07;;;;;;;1.47;1.40;;;8.60;99.90;;;;;;5051046;28;20241;-59
2023/12/11 04:48:34;;;;;;;2.03;1.47;;;8.50;99.90;;;;;;5050944;28;20480;-57
2023/12/11 04:51:01;;;;;;;3.15;1.52;;;8.50;99.90;;;;;;5050304;28;20565;-58
2023/12/11 04:53:27;;;;;;;6.53;1.88;;;8.50;99.90;;;;;;5051195;28;20307;-56
2023/12/11 04:55:54;;;;;;;2.17;1.58;;;8.50;99.90;;;;;;5051216;28;20230;-58
2023/12/11 04:58:21;;;;;;;6.10;1.70;;;8.50;99.90;;;;;;5051032;28;20347;-59
2023/12/11 05:00:50;;;;;;;9.77;2.15;;;8.50;99.90;;;;;;5037526;28;20274;-59
2023/12/11 05:03:16;;;;;;;1.90;1.80;;;8.50;99.90;;;;;;5031450;28;20242;-53
2023/12/11 05:05:43;;;;;;;2.13;1.30;;;8.50;99.90;;;;;;5031210;28;20497;-58
2023/12/11 05:08:10;;;;;;;2.88;1.50;;;8.50;99.90;;;;;;5031298;28;20585;-56
2023/12/11 05:10:37;;;;;;;1.80;1.50;;;8.60;99.90;;;;;;5031479;28;20227;-56
2023/12/11 05:13:04;;;;;;;4.00;1.38;;;8.70;99.90;;;;;;5042517;28;20214;-54
2023/12/11 05:15:31;;;;;;;2.38;1.75;;;8.70;99.90;;;;;;5051107;28;20262;-57
2023/12/11 05:17:59;;;;;;;4.17;1.40;;;8.70;99.90;;;;;;5050693;28;20206;-56
2023/12/11 05:20:26;;;;;;;2.00;1.47;;;8.80;99.90;;;;;;5052915;28;20444;-55
2023/12/11 05:22:53;;;;;;;3.28;2.45;;;8.80;99.90;;;;;;5055365;28;20542;-57
2023/12/11 05:25:20;;;;;;;2.27;1.70;;;8.90;99.90;;;;;;5055002;28;20676;-58
2023/12/11 05:27:47;;;;;;;3.72;1.83;;;8.90;99.90;;;;;;5044640;28;20454;-59
2023/12/11 05:30:14;;;;;;;2.37;1.73;;;9.00;99.90;;;;;;5034716;28;20206;-59
2023/12/11 05:32:42;;;;;;;3.10;1.92;;;9.00;99.90;;;;;;5034978;28;20477;-58
2023/12/11 05:35:10;;;;;;;2.67;1.42;;;9.10;99.90;;;;;;5034983;28;20248;-57
2023/12/11 05:37:37;;;;;;;3.33;2.13;;;9.20;99.90;;;;;;5034746;28;20207;-56
2023/12/11 05:40:05;;;;;;;2.80;1.90;;;9.20;99.90;;;;;;5040465;28;20448;-58
2023/12/11 05:42:32;;;;;;;5.80;1.50;;;9.30;99.90;;;;;;5054523;28;20484;-57
2023/12/11 05:44:59;;;;;;;4.33;2.13;;;9.30;99.90;;;;;;5054133;28;20495;-57
2023/12/11 05:47:26;;;;;;;2.10;1.90;;;9.30;99.90;;;;;;5054016;28;20975;-59
2023/12/11 05:49:53;;;;;;;2.27;1.60;;;9.30;99.90;;;;;;5054644;28;20444;-58
2023/12/11 05:52:21;;;;;;;3.43;1.40;;;9.40;99.90;;;;;;5054254;28;20484;-59
2023/12/11 05:54:48;;;;;;;1.73;1.63;;;9.40;99.90;;;;;;5054302;28;20514;-56
2023/12/11 05:57:15;;;;;;;4.57;2.17;;;9.40;99.90;;;;;;5053968;28;20974;-56
2023/12/11 05:59:42;;;;;;;4.90;2.33;;;9.30;99.90;;;;;;5053505;28;20480;-59
2023/12/11 06:02:09;;;;;;;2.30;2.20;;;9.30;99.90;;;;;;5053918;28;20260;-58
2023/12/11 06:04:36;;;;;;;4.80;1.97;;;9.30;99.90;;;;;;5053904;28;20963;-57
2023/12/11 06:07:04;;;;;;;3.90;2.13;;;9.30;99.90;;;;;;5053185;28;20915;-58
2023/12/11 06:09:32;;;;;;;2.00;1.90;;;9.20;99.90;;;;;;5053721;28;20202;-58
2023/12/11 06:11:59;;;;;;;2.90;1.65;;;9.20;99.90;;;;;;5053849;28;20272;-59
2023/12/11 06:14:26;;;;;;;3.43;2.10;;;9.20;99.90;;;;;;5053939;28;20206;-58
2023/12/11 06:16:53;;;;;;;4.80;3.40;;;9.20;99.90;;;;;;5053867;28;20497;-58
2023/12/11 06:19:20;;;;;;;9.48;5.70;;;9.10;99.90;;;;;;5053692;28;20646;-58
2023/12/11 06:21:46;;;;;;;4.67;4.10;;;9.10;99.90;;;;;;5053765;28;20259;-59
2023/12/11 06:24:13;;;;;;;6.03;4.03;;;9.20;99.90;;;;;;5053513;28;20492;-58
2023/12/11 06:26:42;;;;;;;3.13;2.17;;;9.10;99.90;;;;;;5053423;28;20254;-59
2023/12/11 06:29:09;;;;;;;5.30;4.55;;;9.10;99.90;;;;;;5053231;28;21019;-58
2023/12/11 06:31:36;;;;;;;3.53;3.25;;;9.10;99.90;;;;;;5052650;28;20280;-59
2023/12/11 06:34:03;;;;;;;3.50;3.20;;;9.10;99.90;;;;;;5053475;28;20249;-57
2023/12/11 06:36:30;;;;;;;12.05;3.38;;;9.00;99.90;;;;;;5053275;28;20309;-58
2023/12/11 06:38:57;;;;;;;4.18;3.72;;;9.00;99.90;;;;;;5053087;28;20207;-58
2023/12/11 06:41:24;;;;;;;7.17;5.30;;;9.00;99.90;;;;;;5046031;28;20241;-59
2023/12/11 06:43:54;;;;;;;13.55;12.35;;;9.00;99.90;;;;;;5041191;28;20478;-59
2023/12/11 06:46:21;;;;;;;9.13;8.35;;;8.90;99.90;;;;;;5032984;28;20425;-56
2023/12/11 06:48:48;;;;;;;4.53;3.83;;;8.90;99.90;;;;;;5033233;28;20653;-57
2023/12/11 06:51:16;;;;;;;2.97;2.80;;;8.80;99.90;;;;;;5033337;28;20567;-58
2023/12/11 06:53:43;;;;;;;3.20;2.92;;;8.70;99.90;;;;;;5033256;28;20665;-57
2023/12/11 06:56:18;;;;;;;3.88;2.75;;;8.70;99.90;;;;;;5033037;28;20231;-58
2023/12/11 06:58:44;;;;;;;4.13;3.20;;;8.70;99.90;;;;;;5032947;28;20211;-56
2023/12/11 07:01:13;;;;;;;4.57;4.28;;;8.70;99.90;;;;;;5033236;28;20628;-58
2023/12/11 07:03:40;;;;;;;5.22;3.05;;;8.70;99.90;;;;;;5033138;28;20211;-55
2023/12/11 07:06:08;;;;;;;6.30;4.15;;;8.70;99.90;;;;;;5032740;28;20246;-59
2023/12/11 07:08:35;;;;;;;3.85;3.28;;;8.70;99.90;;;;;;5032707;28;20207;-56
2023/12/11 07:11:02;;;;;;;8.03;2.93;;;8.70;99.90;;;;;;5032959;28;20265;-58
2023/12/11 07:13:29;;;;;;;4.07;3.70;;;8.80;99.90;;;;;;5032873;28;20503;-57
2023/12/11 07:15:56;;;;;;;4.72;3.65;;;8.80;99.90;;;;;;5032729;28;20227;-57
2023/12/11 07:18:24;;;;;;;3.93;2.97;;;8.80;99.90;;;;;;5032595;28;20246;-57
2023/12/11 07:20:51;;;;;;;3.88;3.58;;;8.80;99.90;;;;;;5032617;28;20458;-57
2023/12/11 07:23:18;;;;;;;3.72;3.35;;;8.80;99.90;;;;;;5032654;28;20246;-59
2023/12/11 07:25:47;;;;;;;3.17;2.87;;;8.80;99.90;;;;;;5032574;28;20278;-58
2023/12/11 07:28:14;;;;;;;2.65;2.55;;;8.80;99.90;;;;;;5032356;28;20458;-58
2023/12/11 07:30:41;;;;;;;2.95;2.60;;;8.80;99.90;;;;;;5032550;28;20289;-58
2023/12/11 07:33:08;;;;;;;4.35;3.65;;;8.80;99.90;;;;;;5032491;28;20291;-58
2023/12/11 07:35:36;;;;;;;4.20;3.50;;;8.80;99.90;;;;;;5032226;28;20733;-59
2023/12/11 07:38:03;;;;;;;6.75;4.30;;;8.80;99.90;;;;;;5032252;28;20213;-58
2023/12/11 07:40:30;;;;;;;4.57;4.25;;;8.80;99.90;;;;;;5032513;28;20209;-57
2023/12/11 07:42:57;;;;;;;5.75;5.45;;;8.80;99.90;;;;;;5032312;28;20205;-57
2023/12/11 07:45:25;;;;;;;3.60;3.30;;;8.80;99.90;;;;;;5031989;28;20214;-59
2023/12/11 07:47:52;;;;;;;6.40;3.22;;;8.80;99.90;;;;;;5031932;28;20207;-57
2023/12/11 07:50:19;;;;;;;2.30;2.10;;;8.80;99.90;;;;;;5032017;28;20239;-56
2023/12/11 07:52:47;;;;;;;4.25;3.40;;;8.80;99.90;;;;;;5032044;28;20231;-59
2023/12/11 07:55:14;;;;;;;2.70;2.20;;;8.90;99.90;;;;;;5032139;28;20242;-58
2023/12/11 07:57:41;;;;;;;2.65;2.10;;;8.90;99.90;;;;;;5031633;28;20539;-57
2023/12/11 08:00:08;;;;;;;2.60;2.17;;;8.90;99.90;;;;;;5031750;28;20246;-55
2023/12/11 08:02:36;;;;;;;2.15;1.90;;;9.00;99.90;;;;;;5031766;28;20503;-56
2023/12/11 08:05:03;;;;;;;2.70;2.50;;;9.00;99.90;;;;;;5031993;28;20246;-59
2023/12/11 08:07:30;;;;;;;3.10;2.87;;;9.00;99.90;;;;;;5031760;28;20665;-54
2023/12/11 08:09:58;;;;;;;3.00;2.80;;;9.00;99.90;;;;;;5031873;28;20881;-58
2023/12/11 08:12:26;;;;;;;6.32;2.40;;;9.10;99.90;;;;;;5031449;28;20262;-58
2023/12/11 08:14:52;;;;;;;3.07;2.67;;;9.10;99.90;;;;;;5031576;28;20572;-56
2023/12/11 08:17:20;;;;;;;1.55;1.30;;;9.20;99.90;;;;;;5031371;28;20465;-57
2023/12/11 08:19:47;;;;;;;1.57;1.47;;;9.30;99.90;;;;;;5031889;28;20695;-56
2023/12/11 08:22:15;;;;;;;1.88;1.77;;;9.30;99.90;;;;;;5031679;28;20446;-57
2023/12/11 08:24:41;;;;;;;3.33;1.53;;;9.30;99.90;;;;;;5031536;28;20250;-58
2023/12/11 08:27:10;;;;;;;1.33;1.10;;;9.40;99.90;;;;;;5031357;28;20474;-59
2023/12/11 08:29:37;;;;;;;4.50;1.47;;;9.40;99.90;;;;;;5031139;28;20481;-57
2023/12/11 08:32:05;;;;;;;3.30;1.35;;;9.40;99.90;;;;;;5031650;28;20912;-53
2023/12/11 08:34:32;;;;;;;5.00;1.37;;;9.50;99.90;;;;;;5031420;28;20206;-55
2023/12/11 08:36:59;;;;;;;1.67;1.30;;;9.50;99.90;;;;;;5031093;28;20567;-59
2023/12/11 08:39:26;;;;;;;2.07;1.43;;;9.60;99.90;;;;;;5042058;28;20490;-55
2023/12/11 08:41:53;;;;;;;1.10;1.10;;;9.60;99.90;;;;;;5050619;28;21020;-58
2023/12/11 08:44:21;;;;;;;2.80;2.05;;;9.70;99.90;;;;;;5050532;28;20534;-56
2023/12/11 08:46:48;;;;;;;3.80;2.10;;;9.70;99.90;;;;;;5050568;28;20261;-58
2023/12/11 08:49:15;;;;;;;3.10;1.93;;;9.80;99.90;;;;;;5050359;28;20472;-59
2023/12/11 08:51:42;;;;;;;4.50;3.73;;;9.90;99.90;;;;;;5050650;28;20472;-57
2023/12/11 08:54:09;;;;;;;1.50;1.43;;;10.00;99.90;;;;;;5050037;28;20464;-57
2023/12/11 08:56:36;;;;;;;3.20;1.90;;;10.00;99.90;;;;;;5049960;28;20523;-58
2023/12/11 08:59:03;;;;;;;2.00;1.77;;;10.00;99.90;;;;;;5051059;28;20863;-55
2023/12/11 09:01:34;;;;;;;4.93;1.80;;;10.10;99.90;;;;;;5051259;28;20867;-57
2023/12/11 09:04:02;;;;;;;2.27;2.00;;;10.10;99.90;;;;;;5050822;28;20448;-58
2023/12/11 09:06:30;;;;;;;2.97;1.37;;;10.10;99.90;;;;;;5050800;28;20500;-55
2023/12/11 09:08:57;;;;;;;4.40;1.70;;;10.10;99.90;;;;;;5050770;28;20471;-57
2023/12/11 09:11:23;;;;;;;1.93;1.83;;;10.20;99.90;;;;;;5050791;28;20480;-57
2023/12/11 09:13:50;;;;;;;2.07;1.70;;;10.20;99.90;;;;;;5050957;28;20487;-57
2023/12/11 09:16:18;;;;;;;3.00;1.77;;;10.20;99.90;;;;;;5050635;28;20469;-58
2023/12/11 09:18:46;;;;;;;6.10;1.80;;;10.30;99.90;;;;;;5050931;28;20488;-55
2023/12/11 09:21:13;;;;;;;1.60;0.93;;;10.40;99.90;;;;;;5050985;28;20546;-58
2023/12/11 09:23:40;;;;;;;2.37;2.07;;;10.40;99.90;;;;;;5050774;28;20477;-57
2023/12/11 09:26:07;;;;;;;2.17;1.97;;;10.50;99.90;;;;;;5050528;28;20469;-56
2023/12/11 09:28:34;;;;;;;1.77;1.50;;;10.50;99.90;;;;;;5050754;28;20488;-57
2023/12/11 09:31:01;;;;;;;5.27;4.83;;;10.50;99.90;;;;;;5050765;28;20492;-58
2023/12/11 09:33:28;;;;;;;3.03;1.50;;;10.70;99.90;;;;;;5050748;28;20492;-57
2023/12/11 09:35:56;;;;;;;3.73;1.60;;;10.70;99.90;;;;;;5050584;28;20995;-57
2023/12/11 09:38:23;;;;;;;5.70;1.60;;;10.90;99.90;;;;;;5050494;28;20449;-59
2023/12/11 09:40:50;;;;;;;1.43;1.10;;;11.00;99.90;;;;;;5050621;28;20444;-57
2023/12/11 09:43:19;;;;;;;3.73;2.17;;;11.10;99.90;;;;;;5050947;28;20456;-58
2023/12/11 09:45:49;;;;;;;6.17;4.00;;;11.20;99.90;;;;;;5050235;28;20560;-56
2023/12/11 09:48:16;;;;;;;2.43;1.50;;;11.30;99.90;;;;;;5050290;28;20803;-58
2023/12/11 09:50:42;;;;;;;9.27;2.70;;;11.40;99.90;;;;;;5050542;28;20480;-56
2023/12/11 09:53:11;;;;;;;2.60;2.17;;;11.40;99.90;;;;;;5050414;28;20526;-58
2023/12/11 09:55:38;;;;;;;1.87;1.77;;;11.50;99.90;;;;;;5050474;28;20901;-57
2023/12/11 09:58:06;;;;;;;3.47;2.10;;;11.50;99.90;;;;;;5049835;28;20448;-58
2023/12/11 10:00:33;;;;;;;4.80;2.13;;;11.50;99.90;;;;;;5049264;28;20484;-57
2023/12/11 10:03:05;;;;;;;2.17;1.80;;;11.50;99.90;;;;;;5050223;28;20476;-58
2023/12/11 10:05:34;;;;;;;3.83;1.60;;;11.50;99.90;;;;;;5050355;28;20465;-59
2023/12/11 10:08:02;;;;;;;3.50;2.17;;;11.60;99.90;;;;;;5052750;28;20453;-57
2023/12/11 10:10:32;;;;;;;2.57;1.53;;;11.60;99.90;;;;;;5054050;28;20490;-58
2023/12/11 10:13:00;;;;;;;2.73;1.57;;;11.50;99.90;;;;;;5052048;28;20528;-60
2023/12/11 10:15:28;;;;;;;2.90;1.63;;;11.60;99.90;;;;;;5066068;22;20536;-61
2023/12/11 10:18:03;;;;;;;4.40;3.30;;;11.60;99.90;;;;;;5032264;28;20469;-58
2023/12/11 10:20:30;;;;;;;7.00;2.40;;;11.70;99.90;;;;;;5032814;28;20906;-58
2023/12/11 10:22:57;;;;;;;9.23;2.97;;;11.60;99.90;;;;;;5032540;28;20442;-61
2023/12/11 10:25:26;;;;;;;2.83;1.50;;;11.70;99.90;;;;;;5032796;28;20497;-60
2023/12/11 10:28:06;;;;;;;3.57;2.03;;;11.60;99.90;;;;;;5032070;28;20512;-60
2023/12/11 10:30:33;;;;;;;7.27;1.80;;;11.70;99.90;;;;;;5032836;28;20476;-59
2023/12/11 10:33:02;;;;;;;2.13;1.90;;;11.70;99.90;;;;;;5032539;28;20486;-61
2023/12/11 10:35:30;;;;;;;3.10;1.53;;;11.70;99.90;;;;;;5032383;28;20509;-61
2023/12/11 10:38:01;;;;;;;4.07;1.83;;;11.70;99.90;;;;;;5029568;28;21022;-58
2023/12/11 10:40:37;;;;;;;5.03;1.63;;;11.70;99.90;;;;;;5031946;28;20479;-59
2023/12/11 10:43:05;;;;;;;6.80;2.20;;;11.70;99.90;;;;;;5032056;28;20441;-63
2023/12/11 10:45:33;;;;;;;3.97;3.67;;;11.70;99.90;;;;;;5032091;28;20502;-62
2023/12/11 10:48:00;;;;;;;9.03;2.80;;;11.80;99.90;;;;;;5031680;28;20445;-61
2023/12/11 10:50:27;;;;;;;5.70;1.87;;;11.80;99.90;;;;;;5032147;28;20819;-62
2023/12/11 10:52:54;;;;;;;5.57;2.00;;;11.80;99.90;;;;;;5031630;28;20849;-58
2023/12/11 10:55:22;;;;;;;3.73;1.73;;;12.00;99.90;;;;;;5032020;28;20465;-62
2023/12/11 10:57:50;;;;;;;5.10;2.00;;;12.10;99.90;;;;;;5031469;28;20922;-61
2023/12/11 11:00:20;;;;;;;5.17;2.00;;;12.10;99.90;;;;;;5031658;28;20557;-60
2023/12/11 11:02:51;;;;;;;1.70;1.47;;;12.20;99.90;;;;;;5032007;28;20962;-61
2023/12/11 11:05:19;;;;;;;4.50;1.90;;;12.10;99.90;;;;;;5031318;28;20999;-61
2023/12/11 11:07:51;;;;;;;7.07;2.10;;;12.20;99.90;;;;;;5029921;28;20872;-60
2023/12/11 11:10:21;;;;;;;5.00;2.57;;;12.20;99.90;;;;;;5031117;28;20520;-61
2023/12/11 11:12:55;;;;;;;5.23;2.20;;;12.10;99.90;;;;;;5030887;28;20576;-60
2023/12/11 11:15:24;;;;;;;2.67;1.87;;;12.10;99.90;;;;;;5030904;28;20553;-59
2023/12/11 11:17:58;;;;;;;2.67;2.07;;;12.10;99.90;;;;;;5030272;28;20508;-60
2023/12/11 11:20:25;;;;;;;3.70;2.20;;;12.10;99.90;;;;;;5031035;28;20461;-60
2023/12/11 11:22:52;;;;;;;4.83;1.90;;;12.00;99.90;;;;;;5030903;28;20449;-60
2023/12/11 11:25:36;;;;;;;4.23;2.70;;;12.00;99.90;;;;;;5030665;28;20469;-59
2023/12/11 11:28:03;;;;;;;2.60;1.57;;;12.10;99.90;;;;;;5030440;28;21146;-59
2023/12/11 11:30:51;;;;;;;4.63;1.97;;;12.10;99.90;;;;;;5030922;28;20978;-60
2023/12/11 11:33:19;;;;;;;3.40;2.30;;;12.00;99.90;;;;;;5030661;28;20482;-56
2023/12/11 11:35:54;;;;;;;6.13;2.10;;;11.90;99.90;;;;;;5030622;28;20474;-57
2023/12/11 11:38:22;;;;;;;6.03;2.90;;;11.90;99.90;;;;;;5031284;28;20529;-59
2023/12/11 11:40:51;;;;;;;4.37;2.13;;;11.90;99.90;;;;;;5031633;28;20980;-60
2023/12/11 11:43:18;;;;;;;5.97;1.83;;;11.90;99.90;;;;;;5031621;28;20533;-58
2023/12/11 11:45:45;;;;;;;8.17;2.10;;;12.00;99.90;;;;;;5031395;28;20474;-58
2023/12/11 11:48:13;;;;;;;4.43;1.83;;;12.00;99.90;;;;;;5030699;28;20446;-60
2023/12/11 11:50:54;;;;;;;2.40;1.43;;;12.00;99.90;;;;;;5031338;28;20449;-56
2023/12/11 11:53:22;;;;;;;7.83;2.53;;;12.00;99.90;;;;;;5030864;28;21087;-60
2023/12/11 11:55:50;;;;;;;6.80;3.70;;;12.00;99.90;;;;;;5031230;28;20501;-60
2023/12/11 11:58:17;;;;;;;8.53;5.60;;;12.10;99.90;;;;;;5030790;28;20458;-60
2023/12/11 12:00:45;;;;;;;5.23;3.57;;;12.10;99.90;;;;;;5030786;28;20445;-60
2023/12/11 12:03:13;;;;;;;12.97;4.00;;;12.10;99.90;;;;;;5031146;28;20442;-59
2023/12/11 12:05:54;;;;;;;4.47;3.40;;;12.00;99.90;;;;;;5031181;28;20553;-59
2023/12/11 12:08:21;;;;;;;3.60;1.90;;;12.10;99.90;;;;;;5030678;28;20446;-60
2023/12/11 12:10:48;;;;;;;4.33;2.03;;;12.10;99.90;;;;;;5031050;28;20532;-60
2023/12/11 12:13:15;;;;;;;7.33;1.97;;;12.10;99.90;;;;;;5030675;28;20901;-61
2023/12/11 12:15:45;;;;;;;3.30;2.80;;;12.00;99.90;;;;;;5030587;28;20927;-61
2023/12/11 12:18:13;;;;;;;9.03;2.30;;;12.00;99.90;;;;;;5030763;28;20442;-61
2023/12/11 12:20:40;;;;;;;2.87;1.73;;;11.90;99.90;;;;;;5030915;28;20477;-56
2023/12/11 12:23:07;;;;;;;3.63;1.83;;;12.00;99.90;;;;;;5030852;28;20438;-60
2023/12/11 12:25:34;;;;;;;4.93;1.70;;;12.00;99.90;;;;;;5030580;28;20492;-62
2023/12/11 12:28:06;;;;;;;2.90;2.07;;;12.10;99.90;;;;;;5030290;28;20446;-59
2023/12/11 12:30:34;;;;;;;5.70;2.10;;;12.10;99.90;;;;;;5030014;28;20553;-61
2023/12/11 12:33:02;;;;;;;6.30;2.00;;;12.10;99.90;;;;;;5020921;28;20585;-60
2023/12/11 12:35:33;;;;;;;4.90;2.00;;;12.10;99.90;;;;;;5029763;28;20844;-61
2023/12/11 12:38:01;;;;;;;5.07;2.10;;;12.10;99.90;;;;;;5021314;28;20553;-59
2023/12/11 12:40:28;;;;;;;5.67;2.77;;;12.00;99.90;;;;;;5029351;28;20450;-58
2023/12/11 12:43:09;;;;;;;6.07;1.80;;;12.00;99.90;;;;;;5029828;28;20822;-61
2023/12/11 12:45:36;;;;;;;3.70;2.40;;;12.00;99.90;;;;;;5030015;28;20464;-60
2023/12/11 12:48:04;;;;;;;8.50;3.50;;;11.90;99.90;;;;;;5029874;28;20902;-59
2023/12/11 12:50:32;;;;;;;6.20;1.67;;;12.00;99.90;;;;;;5029627;28;20449;-61
2023/12/11 12:53:07;;;;;;;8.30;2.73;;;11.90;99.90;;;;;;5028920;28;20525;-60
2023/12/11 12:55:35;;;;;;;7.87;2.70;;;11.90;99.90;;;;;;5029766;28;20511;-59